Time;durP1;ratioP1;P1;durP2;ratioP2;P2;SDS_P1;SDS_P2;PMS_P1;PMS_P2;Temp;Humidity;BMP_temperature;BMP_pressure;BME280_temperature;BME280_humidity;BME280_pressure;Samples;Min_cycle;Max_cycle;Signal;HPM_P1;HPM_P2
2021/11/27 14:15:59;;;;;;;22.48;12.10;;;;;;;2.05;54.34;98091.41;4984532;28;106142;-71
2021/11/27 14:18:29;;;;;;;12.88;6.60;;;;;;;2.06;55.82;98089.59;4982971;28;106104;-74
2021/11/27 14:20:58;;;;;;;;;;;;;;;2.06;55.74;98090.41;4984046;28;106195;-71
2021/11/27 14:23:29;;;;;;;19.50;11.27;;;;;;;2.10;56.25;98099.59;4983888;28;105966;-72
2021/11/27 14:26:08;;;;;;;23.15;11.63;;;;;;;2.14;56.89;98089.59;4982848;28;106200;-71
2021/11/27 14:28:38;;;;;;;21.98;12.65;;;;;;;2.15;56.97;98096.47;4983216;28;106285;-74
2021/11/27 14:31:15;;;;;;;19.15;10.27;;;;;;;2.18;57.59;98093.50;4983468;28;106032;-73
2021/11/27 14:33:43;;;;;;;25.02;13.43;;;;;;;2.20;57.66;98099.41;4983033;28;106191;-74
2021/11/27 14:36:08;;;;;;;22.38;12.68;;;;;;;2.18;58.41;98099.56;4982808;28;106444;-78
2021/11/27 14:38:52;;;;;;;18.60;11.93;;;;;;;2.16;59.15;98096.31;4983720;28;106062;-74
2021/11/27 14:41:17;;;;;;;21.70;12.30;;;;;;;2.11;59.23;98103.06;4983039;28;106191;-73
2021/11/27 14:43:56;;;;;;;29.10;16.40;;;;;;;2.03;59.28;98096.81;4983163;28;106045;-78
2021/11/27 14:46:39;;;;;;;28.92;14.38;;;;;;;2.01;60.09;98105.88;4982902;28;106396;-78
2021/11/27 14:49:36;;;;;;;31.42;16.35;;;;;;;1.92;60.21;98109.50;4983452;28;106579;-77
2021/11/27 14:52:23;;;;;;;27.30;15.00;;;;;;;1.88;61.01;98111.63;4982555;28;106260;-78
2021/11/27 14:54:48;;;;;;;31.33;18.13;;;;;;;1.83;61.01;98113.91;4983112;28;105938;-79
2021/11/27 14:57:17;;;;;;;30.42;16.88;;;;;;;1.77;61.50;98109.34;4983840;28;106469;-80
2021/11/27 15:00:00;;;;;;;18.67;10.60;;;;;;;1.72;62.24;98114.25;4981991;28;106062;-77
2021/11/27 15:02:34;;;;;;;28.23;15.10;;;;;;;1.66;62.73;98126.22;4983017;28;106450;-76
2021/11/27 15:05:01;;;;;;;37.40;19.17;;;;;;;1.61;62.64;98131.94;4982474;28;106274;-76
2021/11/27 15:07:28;;;;;;;31.55;18.13;;;;;;;1.56;62.83;98130.81;4982462;28;106102;-74
2021/11/27 15:09:55;;;;;;;25.42;13.95;;;;;;;1.53;63.40;98134.56;4983642;28;106230;-76
2021/11/27 15:12:23;;;;;;;32.55;18.92;;;;;;;1.45;63.59;98142.44;4982913;28;106104;-76
2021/11/27 15:14:48;;;;;;;31.85;17.02;;;;;;;1.41;64.03;98141.97;4981485;28;106039;-76
2021/11/27 15:17:14;;;;;;;37.30;20.05;;;;;;;1.38;64.29;98144.91;4982574;28;106420;-77
2021/11/27 15:19:44;;;;;;;33.78;17.92;;;;;;;1.33;64.08;98142.75;4983745;28;106025;-76
2021/11/27 15:22:13;;;;;;;39.42;19.67;;;;;;;1.29;64.68;98136.19;4982741;28;106278;-78
2021/11/27 15:24:41;;;;;;;38.90;20.63;;;;;;;1.27;64.42;98142.56;4982669;28;106453;-78
2021/11/27 15:27:07;;;;;;;33.03;20.52;;;;;;;1.28;65.06;98145.03;4969943;28;106442;-76
2021/11/27 15:29:32;;;;;;;44.03;23.17;;;;;;;1.26;64.80;98140.94;4970078;28;106035;-79
2021/11/27 15:32:03;;;;;;;43.22;22.13;;;;;;;1.26;65.10;98146.19;4970186;28;106321;-82
2021/11/27 15:34:29;;;;;;;39.72;19.65;;;;;;;1.27;65.21;98132.94;4969269;28;106149;-78
2021/11/27 15:36:55;;;;;;;44.22;21.52;;;;;;;1.29;65.63;98141.44;4968492;28;106100;-75
2021/11/27 15:39:20;;;;;;;41.25;21.98;;;;;;;1.27;65.61;98145.19;4968626;28;106124;-69
2021/11/27 15:41:46;;;;;;;42.25;21.20;;;;;;;1.26;65.78;98146.19;4968727;28;106638;-71
2021/11/27 15:44:12;;;;;;;28.95;16.55;;;;;;;1.24;65.91;98146.34;4968069;28;107003;-70
2021/11/27 15:46:38;;;;;;;38.53;21.70;;;;;;;1.27;66.06;98147.81;4968104;28;105957;-70
2021/11/27 15:49:05;;;;;;;40.97;20.92;;;;;;;1.26;66.13;98146.19;4968964;28;106000;-70
2021/11/27 15:51:33;;;;;;;36.72;18.92;;;;;;;1.26;66.20;98146.19;4968352;28;106186;-71
2021/11/27 15:53:59;;;;;;;21.58;13.23;;;;;;;1.25;66.76;98140.13;4968379;28;106151;-72
2021/11/27 15:56:24;;;;;;;24.60;16.27;;;;;;;1.23;66.72;98142.09;4968887;28;106214;-71
